Time;durP1;ratioP1;P1;durP2;ratioP2;P2;SDS_P1;SDS_P2;PMS_P1;PMS_P2;Temp;Humidity;BMP_temperature;BMP_pressure;BME280_temperature;BME280_humidity;BME280_pressure;Samples;Min_cycle;Max_cycle;Signal;HPM_P1;HPM_P2
2022/01/27 00:05:47;;;;;;;36.13;15.38;;;;;;;;;;6192944;23;20008;-76
2022/01/27 00:08:08;;;;;;;33.85;15.40;;;;;;;;;;6175429;23;20371;-76
2022/01/27 00:13:01;;;;;;;31.85;14.27;;;;;;;;;;6193394;23;20209;-76
2022/01/27 00:15:33;;;;;;;29.33;13.27;;;;;;;;;;6192502;23;19997;-76
2022/01/27 00:18:03;;;;;;;36.13;14.77;;;;;;;;;;6192532;23;20005;-75
2022/01/27 00:20:31;;;;;;;32.92;14.48;;;;;;;;;;6192920;23;20325;-75
2022/01/27 00:22:57;;;;;;;34.25;14.13;;;;;;;;;;6180909;23;20005;-76
2022/01/27 00:25:23;;;;;;;33.53;14.73;;;;;;;;;;6193689;23;19997;-76
2022/01/27 00:27:49;;;;;;;37.50;15.23;;;;;;;;;;6193300;23;20076;-74
2022/01/27 00:30:15;;;;;;;29.40;14.40;;;;;;;;;;6192458;23;20426;-74
2022/01/27 00:32:41;;;;;;;35.80;14.48;;;;;;;;;;6193006;23;20001;-75
2022/01/27 00:35:07;;;;;;;26.27;13.05;;;;;;;;;;6184675;23;19997;-77
2022/01/27 00:37:34;;;;;;;31.13;13.98;;;;;;;;;;6191623;23;20017;-77
2022/01/27 00:40:00;;;;;;;32.88;12.82;;;;;;;;;;6192627;23;20013;-77
2022/01/27 00:42:28;;;;;;;26.45;13.95;;;;;;;;;;6192173;23;20385;-77
2022/01/27 00:44:54;;;;;;;30.38;13.15;;;;;;;;;;6192336;23;20001;-77
2022/01/27 00:47:20;;;;;;;35.13;14.82;;;;;;;;;;6191337;23;20047;-79
2022/01/27 00:49:46;;;;;;;33.40;14.82;;;;;;;;;;6190600;23;20012;-77
2022/01/27 00:52:20;;;;;;;29.15;13.27;;;;;;;;;;6191725;23;20369;-77
2022/01/27 00:54:46;;;;;;;28.73;13.98;;;;;;;;;;6192735;23;20587;-77
2022/01/27 01:00:07;;;;;;;36.75;14.90;;;;;;;;;;6168397;23;20013;-75
2022/01/27 01:02:52;;;;;;;30.98;15.75;;;;;;;;;;6192186;23;20314;-75
2022/01/27 01:08:07;;;;;;;31.33;15.15;;;;;;;;;;6193204;23;20036;-77
2022/01/27 01:15:48;;;;;;;32.58;15.20;;;;;;;;;;6192700;23;20442;-76
2022/01/27 01:32:13;;;;;;;34.40;17.55;;;;;;;;;;6193847;23;20401;-79
2022/01/27 01:34:45;;;;;;;31.92;17.95;;;;;;;;;;6194594;23;19997;-75
2022/01/27 01:37:11;;;;;;;38.78;17.45;;;;;;;;;;6181748;23;20043;-77
2022/01/27 01:39:38;;;;;;;36.85;17.30;;;;;;;;;;6193088;23;20036;-76
2022/01/27 01:42:06;;;;;;;29.70;17.42;;;;;;;;;;6194881;23;20001;-76
2022/01/27 01:44:33;;;;;;;35.40;18.33;;;;;;;;;;6193792;23;20437;-76
2022/01/27 01:46:59;;;;;;;34.72;17.75;;;;;;;;;;6192492;23;20005;-77
2022/01/27 01:49:26;;;;;;;39.20;19.27;;;;;;;;;;6194618;23;20432;-76
2022/01/27 01:51:56;;;;;;;41.40;18.63;;;;;;;;;;6193930;23;20048;-75
2022/01/27 01:54:22;;;;;;;31.05;17.48;;;;;;;;;;6194033;23;20530;-75
2022/01/27 01:56:48;;;;;;;34.00;18.27;;;;;;;;;;6193812;23;20025;-74
2022/01/27 01:59:15;;;;;;;39.50;20.23;;;;;;;;;;6193458;23;20001;-75
2022/01/27 02:01:41;;;;;;;41.03;20.42;;;;;;;;;;6194337;23;20001;-74
2022/01/27 03:31:34;;;;;;;40.72;18.92;;;;;;;;;;6181462;23;20358;-59
2022/01/27 03:34:00;;;;;;;42.28;20.00;;;;;;;;;;6103140;23;1143604;-78
2022/01/27 03:36:26;;;;;;;46.47;21.38;;;;;;;;;;6159494;23;20015;-75
2022/01/27 03:38:53;;;;;;;33.90;19.05;;;;;;;;;;6160134;23;20032;-74
2022/01/27 03:41:21;;;;;;;48.65;20.80;;;;;;;;;;6159944;23;20541;-77
2022/01/27 03:43:48;;;;;;;42.58;19.80;;;;;;;;;;6125526;23;19997;-75
2022/01/27 03:46:14;;;;;;;45.88;19.83;;;;;;;;;;6162972;23;19993;-75
2022/01/27 03:48:40;;;;;;;36.90;19.10;;;;;;;;;;6162459;23;19994;-75
2022/01/27 03:51:06;;;;;;;41.15;19.50;;;;;;;;;;6163698;23;20014;-74
2022/01/27 03:53:33;;;;;;;41.47;19.42;;;;;;;;;;6161494;23;20056;-74
2022/01/27 03:55:59;;;;;;;47.40;18.05;;;;;;;;;;6160761;23;20330;-74
2022/01/27 03:58:25;;;;;;;39.03;20.48;;;;;;;;;;6161179;23;20327;-74
2022/01/27 04:00:51;;;;;;;42.65;18.60;;;;;;;;;;6163415;23;20323;-78
2022/01/27 04:03:19;;;;;;;36.92;19.08;;;;;;;;;;6162460;23;20033;-77
2022/01/27 04:05:56;;;;;;;38.88;17.30;;;;;;;;;;6161107;23;20001;-75
2022/01/27 04:08:22;;;;;;;41.13;17.88;;;;;;;;;;6163216;23;20000;-75
2022/01/27 04:10:48;;;;;;;39.88;18.63;;;;;;;;;;6161393;23;20024;-75
2022/01/27 04:13:15;;;;;;;48.17;18.55;;;;;;;;;;6162017;23;19993;-75
2022/01/27 04:15:43;;;;;;;44.75;18.05;;;;;;;;;;6162383;23;19993;-75
2022/01/27 04:18:09;;;;;;;34.67;16.65;;;;;;;;;;6163575;23;20415;-75
2022/01/27 04:20:36;;;;;;;43.95;18.13;;;;;;;;;;6162176;23;19997;-75
2022/01/27 04:23:02;;;;;;;38.72;18.88;;;;;;;;;;6161952;23;20002;-76
2022/01/27 04:25:28;;;;;;;51.88;24.95;;;;;;;;;;6127005;23;20002;-76
2022/01/27 04:27:59;;;;;;;42.03;17.60;;;;;;;;;;6161882;23;20032;-77
2022/01/27 04:30:26;;;;;;;38.10;17.05;;;;;;;;;;6163044;23;20080;-75
2022/01/27 04:32:56;;;;;;;35.58;16.75;;;;;;;;;;6160709;23;20355;-75
2022/01/27 04:35:26;;;;;;;38.38;18.15;;;;;;;;;;6164025;23;20010;-78
2022/01/27 04:38:11;;;;;;;46.30;16.95;;;;;;;;;;6162973;23;20407;-76
2022/01/27 04:40:47;;;;;;;52.00;18.77;;;;;;;;;;6127034;23;20013;-76
2022/01/27 04:48:56;;;;;;;47.05;16.40;;;;;;;;;;6162049;23;20098;-76
2022/01/27 04:51:23;;;;;;;51.97;17.23;;;;;;;;;;6162412;23;20312;-78
2022/01/27 04:56:17;;;;;;;34.28;15.45;;;;;;;;;;6162021;23;20020;-79
2022/01/27 04:58:46;;;;;;;39.95;14.95;;;;;;;;;;6162607;23;20001;-75
2022/01/27 05:01:13;;;;;;;40.75;17.55;;;;;;;;;;6163106;23;20009;-75
2022/01/27 05:03:45;;;;;;;39.55;15.93;;;;;;;;;;6162264;23;20080;-75
2022/01/27 05:06:11;;;;;;;43.85;16.75;;;;;;;;;;6162829;23;20007;-75
2022/01/27 05:08:37;;;;;;;50.22;15.45;;;;;;;;;;6162421;23;20080;-75
2022/01/27 05:11:16;;;;;;;40.15;15.90;;;;;;;;;;6162490;23;20163;-74
2022/01/27 05:13:54;;;;;;;34.40;14.73;;;;;;;;;;6163123;23;20005;-75
2022/01/27 05:16:20;;;;;;;40.65;15.15;;;;;;;;;;6162739;23;20002;-75
2022/01/27 05:18:46;;;;;;;32.90;13.57;;;;;;;;;;6161792;23;19998;-75
2022/01/27 05:21:12;;;;;;;48.13;14.77;;;;;;;;;;6163757;23;20025;-75
2022/01/27 05:23:39;;;;;;;40.30;14.98;;;;;;;;;;6135824;23;20371;-75
2022/01/27 05:26:05;;;;;;;43.55;14.35;;;;;;;;;;6163444;23;20016;-74
2022/01/27 05:28:31;;;;;;;43.58;13.85;;;;;;;;;;6162264;23;20001;-74
2022/01/27 05:30:57;;;;;;;36.67;16.00;;;;;;;;;;6136541;23;20010;-79
2022/01/27 05:33:23;;;;;;;39.70;14.23;;;;;;;;;;6162498;23;20013;-80
2022/01/27 05:35:49;;;;;;;39.90;15.20;;;;;;;;;;6162574;23;20085;-74
2022/01/27 05:38:16;;;;;;;40.20;14.43;;;;;;;;;;6160574;23;20171;-78
2022/01/27 05:40:43;;;;;;;41.35;14.35;;;;;;;;;;6163020;23;20080;-74
2022/01/27 05:43:10;;;;;;;45.15;15.20;;;;;;;;;;6162397;23;20002;-75
2022/01/27 05:45:36;;;;;;;47.97;14.80;;;;;;;;;;6162287;23;20114;-76
2022/01/27 05:48:02;;;;;;;45.22;15.13;;;;;;;;;;6162484;23;20056;-74
2022/01/27 05:50:28;;;;;;;40.22;14.45;;;;;;;;;;6161849;23;19998;-74
2022/01/27 05:52:54;;;;;;;42.13;13.65;;;;;;;;;;6126288;23;20006;-75
2022/01/27 05:55:20;;;;;;;51.78;17.17;;;;;;;;;;6162682;23;20314;-75
2022/01/27 05:57:46;;;;;;;43.83;14.70;;;;;;;;;;6162183;23;20841;-74
2022/01/27 06:00:12;;;;;;;47.38;14.55;;;;;;;;;;6135786;23;19998;-74
2022/01/27 06:02:38;;;;;;;41.63;15.43;;;;;;;;;;6136165;23;20322;-74
2022/01/27 06:05:05;;;;;;;38.63;13.77;;;;;;;;;;6163171;23;20450;-74
2022/01/27 06:07:32;;;;;;;45.33;14.32;;;;;;;;;;6162796;23;20479;-73
2022/01/27 06:09:58;;;;;;;45.03;15.25;;;;;;;;;;6162427;23;19998;-73
2022/01/27 06:12:24;;;;;;;54.92;15.63;;;;;;;;;;6161826;23;20009;-74
2022/01/27 06:14:51;;;;;;;47.80;15.32;;;;;;;;;;6162189;23;20001;-73
2022/01/27 06:17:17;;;;;;;40.08;14.60;;;;;;;;;;6128452;23;20060;-76
2022/01/27 06:19:44;;;;;;;47.33;14.93;;;;;;;;;;6164044;23;20097;-73
2022/01/27 06:22:11;;;;;;;39.88;14.98;;;;;;;;;;6164282;23;20080;-74
2022/01/27 06:24:41;;;;;;;47.72;17.33;;;;;;;;;;6165038;23;20005;-73
2022/01/27 06:27:07;;;;;;;42.65;14.95;;;;;;;;;;6164450;23;20322;-76
2022/01/27 06:29:34;;;;;;;47.00;15.95;;;;;;;;;;6163195;23;20013;-74
2022/01/27 06:32:01;;;;;;;50.05;16.60;;;;;;;;;;6164173;23;20051;-73
2022/01/27 06:34:27;;;;;;;51.30;15.98;;;;;;;;;;6163429;23;20010;-74
2022/01/27 06:36:53;;;;;;;49.00;17.55;;;;;;;;;;6128082;23;20001;-74
2022/01/27 06:39:19;;;;;;;40.67;14.40;;;;;;;;;;6128831;23;20033;-76
2022/01/27 06:41:45;;;;;;;39.63;15.05;;;;;;;;;;6127944;23;20458;-75
2022/01/27 06:44:11;;;;;;;51.63;16.67;;;;;;;;;;6164720;23;19993;-75
2022/01/27 06:46:37;;;;;;;40.58;15.00;;;;;;;;;;6127902;23;20005;-76
2022/01/27 06:49:04;;;;;;;51.38;16.33;;;;;;;;;;6165440;23;20023;-74
2022/01/27 06:51:30;;;;;;;39.60;14.15;;;;;;;;;;6131213;23;20010;-75
2022/01/27 06:53:57;;;;;;;33.55;15.00;;;;;;;;;;6165844;23;19998;-74
2022/01/27 06:56:24;;;;;;;42.85;14.57;;;;;;;;;;6164554;23;20004;-75
2022/01/27 06:58:50;;;;;;;49.30;15.77;;;;;;;;;;6165182;23;20020;-76
2022/01/27 07:01:16;;;;;;;44.40;15.85;;;;;;;;;;6163366;23;20009;-76
2022/01/27 07:03:42;;;;;;;45.90;16.13;;;;;;;;;;6164813;23;20005;-74
2022/01/27 07:06:08;;;;;;;49.67;14.90;;;;;;;;;;6164080;23;19998;-74
2022/01/27 07:08:34;;;;;;;46.88;15.75;;;;;;;;;;6164550;23;20447;-74
2022/01/27 07:11:00;;;;;;;40.17;14.70;;;;;;;;;;6137926;23;20084;-75
2022/01/27 07:13:26;;;;;;;45.13;15.77;;;;;;;;;;6164223;23;20083;-74
2022/01/27 07:15:53;;;;;;;42.80;15.50;;;;;;;;;;6164105;23;20105;-74
2022/01/27 07:18:19;;;;;;;51.72;15.55;;;;;;;;;;6163653;23;20002;-75
2022/01/27 07:20:45;;;;;;;48.33;14.88;;;;;;;;;;6164097;23;20176;-75
2022/01/27 07:23:11;;;;;;;45.92;15.38;;;;;;;;;;6164053;23;19998;-74
2022/01/27 07:25:37;;;;;;;43.83;15.23;;;;;;;;;;6162395;23;19998;-72
2022/01/27 07:28:03;;;;;;;48.22;16.40;;;;;;;;;;6163361;23;19997;-73
2022/01/27 07:30:30;;;;;;;50.80;14.63;;;;;;;;;;6164004;23;20002;-73
2022/01/27 07:32:56;;;;;;;46.03;15.23;;;;;;;;;;6163135;23;20013;-72
2022/01/27 07:35:22;;;;;;;51.40;13.80;;;;;;;;;;6163435;23;20005;-73
2022/01/27 07:37:48;;;;;;;45.55;13.68;;;;;;;;;;6163636;23;20004;-73
2022/01/27 07:40:14;;;;;;;53.78;14.07;;;;;;;;;;6126710;23;20008;-75
2022/01/27 07:42:41;;;;;;;47.75;13.05;;;;;;;;;;6162601;23;20008;-73
2022/01/27 07:45:10;;;;;;;49.30;13.70;;;;;;;;;;6162726;23;20005;-73
2022/01/27 07:47:36;;;;;;;46.85;13.80;;;;;;;;;;6127083;23;20097;-73
2022/01/27 07:50:03;;;;;;;43.75;12.48;;;;;;;;;;6159011;23;20136;-74
2022/01/27 07:52:29;;;;;;;40.88;12.50;;;;;;;;;;6162556;23;20370;-73
2022/01/27 07:54:55;;;;;;;44.22;16.02;;;;;;;;;;6162203;23;20296;-75
2022/01/27 07:57:21;;;;;;;38.53;12.15;;;;;;;;;;6162973;23;20005;-74
2022/01/27 07:59:47;;;;;;;33.40;12.48;;;;;;;;;;6136984;23;20002;-75
2022/01/27 08:02:13;;;;;;;43.92;12.57;;;;;;;;;;6162200;23;20004;-78
2022/01/27 08:04:39;;;;;;;38.80;11.18;;;;;;;;;;6162584;23;20008;-77
2022/01/27 08:07:06;;;;;;;51.75;11.65;;;;;;;;;;6163108;23;20052;-75
2022/01/27 08:09:32;;;;;;;38.38;10.63;;;;;;;;;;6127445;23;20305;-74
2022/01/27 08:11:59;;;;;;;41.45;9.75;;;;;;;;;;6162151;23;20425;-74
2022/01/27 08:14:25;;;;;;;30.63;10.43;;;;;;;;;;6163726;23;20061;-73
2022/01/27 08:16:51;;;;;;;40.28;11.55;;;;;;;;;;6162358;23;20067;-77
2022/01/27 08:19:17;;;;;;;41.05;11.20;;;;;;;;;;6162864;23;20426;-74
2022/01/27 08:21:43;;;;;;;39.03;11.15;;;;;;;;;;6137355;23;20366;-74
2022/01/27 08:24:11;;;;;;;42.17;13.30;;;;;;;;;;6162568;23;20008;-74
2022/01/27 08:26:43;;;;;;;32.58;9.85;;;;;;;;;;6164116;23;20017;-74
2022/01/27 08:29:22;;;;;;;46.00;11.77;;;;;;;;;;6162907;23;20028;-74
2022/01/27 08:32:06;;;;;;;41.88;10.68;;;;;;;;;;6162376;23;20006;-75
2022/01/27 08:34:36;;;;;;;53.00;16.77;;;;;;;;;;6126317;23;20017;-79
2022/01/27 08:37:04;;;;;;;43.38;9.80;;;;;;;;;;6162215;23;20531;-73
2022/01/27 08:39:30;;;;;;;34.20;9.45;;;;;;;;;;6162716;23;20108;-74
2022/01/27 08:41:56;;;;;;;43.05;14.25;;;;;;;;;;6163148;23;20002;-74
2022/01/27 08:44:22;;;;;;;37.22;7.78;;;;;;;;;;6162516;23;20006;-82
2022/01/27 08:46:49;;;;;;;35.47;8.98;;;;;;;;;;6162806;23;20004;-75
2022/01/27 08:49:17;;;;;;;29.90;8.70;;;;;;;;;;6162989;23;20005;-77
2022/01/27 08:51:43;;;;;;;38.60;10.65;;;;;;;;;;6125723;23;20017;-74
2022/01/27 08:54:09;;;;;;;30.05;9.07;;;;;;;;;;6163448;23;19998;-74
2022/01/27 08:56:35;;;;;;;35.15;8.43;;;;;;;;;;6162879;23;19998;-75
2022/01/27 08:59:01;;;;;;;28.10;7.13;;;;;;;;;;6163144;23;20327;-74
2022/01/27 09:01:28;;;;;;;46.50;14.23;;;;;;;;;;6127176;23;20016;-75
2022/01/27 09:03:54;;;;;;;26.45;8.45;;;;;;;;;;6163107;23;20077;-75
2022/01/27 09:06:21;;;;;;;32.85;7.03;;;;;;;;;;6161108;23;20382;-75
2022/01/27 09:08:48;;;;;;;34.03;6.70;;;;;;;;;;6125415;23;20317;-76
2022/01/27 09:11:14;;;;;;;26.42;6.55;;;;;;;;;;6162250;23;20001;-75
2022/01/27 09:13:41;;;;;;;26.67;6.65;;;;;;;;;;6162840;23;20439;-75
2022/01/27 09:16:08;;;;;;;38.08;8.05;;;;;;;;;;6161636;23;20359;-75
2022/01/27 09:18:34;;;;;;;48.45;10.50;;;;;;;;;;6162204;23;20031;-75
2022/01/27 09:21:05;;;;;;;32.03;6.72;;;;;;;;;;6159518;23;20339;-74
2022/01/27 09:23:32;;;;;;;30.45;6.53;;;;;;;;;;6161277;23;20426;-79
2022/01/27 09:26:04;;;;;;;29.67;6.28;;;;;;;;;;6161088;23;20453;-74
2022/01/27 09:28:30;;;;;;;27.13;6.37;;;;;;;;;;6161310;23;20458;-75
2022/01/27 09:30:57;;;;;;;24.50;6.28;;;;;;;;;;6160966;23;20013;-74
2022/01/27 09:33:23;;;;;;;33.85;7.07;;;;;;;;;;6153630;23;20010;-75
2022/01/27 09:35:49;;;;;;;29.58;5.82;;;;;;;;;;6161729;23;20006;-74
2022/01/27 09:38:16;;;;;;;24.85;5.72;;;;;;;;;;6162632;23;20008;-74
2022/01/27 09:40:47;;;;;;;30.70;6.03;;;;;;;;;;6162028;23;20076;-74
2022/01/27 09:43:14;;;;;;;40.63;6.88;;;;;;;;;;6161979;23;20002;-74
2022/01/27 09:45:40;;;;;;;24.80;6.40;;;;;;;;;;6126497;23;20009;-74
2022/01/27 09:48:15;;;;;;;32.50;6.93;;;;;;;;;;6162200;23;20008;-75
2022/01/27 09:51:00;;;;;;;30.65;6.70;;;;;;;;;;6163013;23;19994;-74
2022/01/27 09:53:26;;;;;;;31.75;6.50;;;;;;;;;;6164129;23;20005;-74
2022/01/27 09:55:52;;;;;;;36.28;6.15;;;;;;;;;;6164622;23;20361;-74
2022/01/27 09:58:18;;;;;;;31.45;5.47;;;;;;;;;;6163543;23;20033;-75
2022/01/27 10:00:44;;;;;;;28.80;5.50;;;;;;;;;;6164511;23;20067;-74
2022/01/27 10:03:13;;;;;;;28.90;5.43;;;;;;;;;;6153768;23;20033;-73
2022/01/27 10:05:40;;;;;;;39.15;11.60;;;;;;;;;;6162434;23;20001;-77
2022/01/27 10:08:09;;;;;;;40.45;6.97;;;;;;;;;;6164742;23;20005;-77
2022/01/27 10:10:37;;;;;;;32.75;6.32;;;;;;;;;;6163022;23;20073;-76
2022/01/27 10:13:05;;;;;;;25.65;5.60;;;;;;;;;;6163720;23;20021;-75
2022/01/27 10:15:36;;;;;;;25.45;5.72;;;;;;;;;;6127136;23;20029;-74
2022/01/27 10:18:15;;;;;;;28.33;5.65;;;;;;;;;;6162656;23;20008;-75
2022/01/27 10:20:51;;;;;;;24.98;4.88;;;;;;;;;;6163338;23;20507;-76
2022/01/27 10:23:22;;;;;;;30.13;8.10;;;;;;;;;;6162789;23;20004;-76
2022/01/27 10:25:53;;;;;;;25.52;6.28;;;;;;;;;;6163669;23;20314;-76
2022/01/27 10:28:22;;;;;;;36.45;6.93;;;;;;;;;;6127131;23;20002;-75
2022/01/27 10:30:53;;;;;;;26.52;5.55;;;;;;;;;;6162320;23;20100;-76
2022/01/27 10:33:19;;;;;;;28.38;6.07;;;;;;;;;;6162630;23;20016;-76
2022/01/27 10:35:45;;;;;;;29.55;5.72;;;;;;;;;;6135864;23;20006;-76
2022/01/27 10:38:13;;;;;;;35.53;5.60;;;;;;;;;;6137081;23;20036;-76
2022/01/27 10:40:42;;;;;;;34.72;4.82;;;;;;;;;;6164353;23;20076;-76
2022/01/27 10:43:15;;;;;;;29.38;5.32;;;;;;;;;;6127710;23;20009;-75
2022/01/27 10:46:04;;;;;;;33.20;4.82;;;;;;;;;;6163882;23;20029;-77
2022/01/27 10:48:33;;;;;;;33.40;6.68;;;;;;;;;;6164028;23;19997;-76
2022/01/27 10:51:15;;;;;;;22.10;4.75;;;;;;;;;;6163353;23;20084;-80
2022/01/27 10:53:48;;;;;;;25.10;4.78;;;;;;;;;;6164741;23;19994;-75
2022/01/27 10:56:16;;;;;;;25.42;3.88;;;;;;;;;;6164000;23;20001;-75
2022/01/27 10:58:43;;;;;;;18.88;3.50;;;;;;;;;;6162865;23;20002;-75
2022/01/27 11:01:09;;;;;;;26.55;4.47;;;;;;;;;;6137812;23;20501;-76
2022/01/27 11:03:36;;;;;;;25.70;4.05;;;;;;;;;;6162549;23;20001;-76
2022/01/27 11:06:09;;;;;;;31.30;4.50;;;;;;;;;;6135880;23;20428;-75
2022/01/27 11:08:37;;;;;;;22.70;5.30;;;;;;;;;;6164132;23;19997;-75
2022/01/27 11:11:04;;;;;;;26.88;3.90;;;;;;;;;;6162719;23;20024;-75
2022/01/27 11:13:33;;;;;;;27.33;4.85;;;;;;;;;;6163198;23;20327;-79
2022/01/27 11:15:59;;;;;;;23.55;4.00;;;;;;;;;;6138381;23;20025;-76
2022/01/27 11:18:27;;;;;;;23.95;4.05;;;;;;;;;;6162373;23;20009;-74
2022/01/27 11:21:01;;;;;;;34.85;5.63;;;;;;;;;;6162403;23;20052;-76
2022/01/27 11:25:55;;;;;;;30.00;6.93;;;;;;;;;;6163650;23;20002;-75
2022/01/27 11:28:22;;;;;;;31.67;5.88;;;;;;;;;;6164429;23;20001;-75
2022/01/27 11:30:58;;;;;;;25.80;3.97;;;;;;;;;;6162555;23;19998;-75
2022/01/27 11:33:34;;;;;;;22.00;4.20;;;;;;;;;;6162709;23;20013;-74
2022/01/27 11:36:06;;;;;;;26.65;3.90;;;;;;;;;;6163443;23;20002;-75
2022/01/27 11:38:32;;;;;;;25.05;4.70;;;;;;;;;;6162190;23;19998;-74
2022/01/27 11:40:58;;;;;;;16.73;3.65;;;;;;;;;;6162090;23;20005;-74
2022/01/27 11:43:34;;;;;;;26.17;4.65;;;;;;;;;;6162928;23;20001;-74
2022/01/27 11:46:20;;;;;;;26.00;4.45;;;;;;;;;;6162834;23;20369;-75
2022/01/27 11:48:46;;;;;;;30.73;4.68;;;;;;;;;;6163088;23;20053;-74
2022/01/27 11:51:14;;;;;;;36.75;4.32;;;;;;;;;;6163015;23;20085;-74
2022/01/27 11:53:40;;;;;;;25.50;3.78;;;;;;;;;;6127301;23;19998;-74
2022/01/27 11:56:28;;;;;;;28.20;4.60;;;;;;;;;;6163073;23;20004;-74
2022/01/27 11:58:55;;;;;;;32.30;5.43;;;;;;;;;;6163341;23;20005;-74
2022/01/27 12:01:25;;;;;;;25.27;5.32;;;;;;;;;;6137168;23;20006;-77
2022/01/27 12:04:07;;;;;;;22.55;4.60;;;;;;;;;;6162404;23;20001;-74
2022/01/27 12:06:34;;;;;;;31.67;3.53;;;;;;;;;;6163193;23;20076;-75
2022/01/27 12:09:18;;;;;;;23.98;3.83;;;;;;;;;;6163212;23;20002;-74
2022/01/27 12:11:48;;;;;;;29.65;3.72;;;;;;;;;;6162984;23;20327;-77
2022/01/27 12:14:17;;;;;;;35.42;4.10;;;;;;;;;;6162438;23;20464;-74
2022/01/27 12:19:13;;;;;;;33.85;5.20;;;;;;;;;;6163204;23;20002;-75
2022/01/27 12:21:53;;;;;;;49.60;6.45;;;;;;;;;;6162358;23;20366;-75
2022/01/27 12:24:28;;;;;;;25.88;4.03;;;;;;;;;;6126387;23;20002;-74
2022/01/27 12:26:55;;;;;;;29.10;4.60;;;;;;;;;;6138901;23;20002;-74
2022/01/27 12:29:26;;;;;;;19.67;3.92;;;;;;;;;;6162620;23;19994;-74
2022/01/27 12:31:53;;;;;;;32.53;4.53;;;;;;;;;;6126779;23;20454;-74
2022/01/27 12:34:19;;;;;;;31.42;4.63;;;;;;;;;;6162689;23;20014;-74
2022/01/27 12:36:59;;;;;;;30.67;4.95;;;;;;;;;;6162414;23;20458;-75
2022/01/27 12:39:26;;;;;;;19.88;4.25;;;;;;;;;;6163767;23;20322;-74
2022/01/27 12:41:54;;;;;;;26.10;5.00;;;;;;;;;;6162958;23;20105;-76
2022/01/27 12:44:20;;;;;;;31.52;4.45;;;;;;;;;;6162629;23;20327;-75
2022/01/27 12:47:06;;;;;;;35.75;5.10;;;;;;;;;;6162973;23;20056;-77
2022/01/27 12:49:38;;;;;;;26.83;3.60;;;;;;;;;;6126649;23;20323;-75
2022/01/27 12:52:08;;;;;;;26.15;4.55;;;;;;;;;;6162430;23;20009;-75
2022/01/27 12:54:34;;;;;;;32.22;4.05;;;;;;;;;;6163259;23;20006;-75
2022/01/27 12:57:01;;;;;;;25.85;3.50;;;;;;;;;;6162350;23;20069;-75
2022/01/27 12:59:31;;;;;;;26.65;3.40;;;;;;;;;;6163052;23;19998;-75
2022/01/27 13:01:58;;;;;;;25.10;4.25;;;;;;;;;;6162371;23;20028;-75
2022/01/27 13:04:24;;;;;;;24.70;4.38;;;;;;;;;;6162380;23;20809;-75
2022/01/27 13:06:55;;;;;;;25.05;3.88;;;;;;;;;;6163371;23;20001;-74
2022/01/27 13:09:21;;;;;;;26.15;3.45;;;;;;;;;;6162894;23;20028;-75
2022/01/27 13:11:49;;;;;;;31.02;4.90;;;;;;;;;;6162873;23;20009;-75
2022/01/27 13:14:15;;;;;;;22.95;4.03;;;;;;;;;;6163512;23;19997;-75
2022/01/27 13:16:44;;;;;;;28.33;5.25;;;;;;;;;;6162442;23;20438;-78
2022/01/27 13:19:22;;;;;;;26.13;3.95;;;;;;;;;;6162780;23;20058;-75
2022/01/27 13:21:53;;;;;;;31.20;4.30;;;;;;;;;;6162837;23;20041;-76
2022/01/27 13:24:19;;;;;;;28.95;3.97;;;;;;;;;;6128109;23;20328;-75
2022/01/27 13:26:46;;;;;;;28.52;3.67;;;;;;;;;;6165141;23;20072;-75
2022/01/27 13:29:17;;;;;;;28.73;5.10;;;;;;;;;;6165421;23;19994;-75
2022/01/27 13:31:43;;;;;;;25.00;2.88;;;;;;;;;;6163813;23;20013;-75
2022/01/27 13:34:09;;;;;;;29.42;3.70;;;;;;;;;;6164160;23;20009;-75
2022/01/27 13:36:36;;;;;;;36.33;5.05;;;;;;;;;;6128922;23;20021;-76
2022/01/27 13:41:37;;;;;;;30.20;4.45;;;;;;;;;;6166003;23;20364;-75
2022/01/27 13:44:05;;;;;;;23.95;3.72;;;;;;;;;;6163551;23;20288;-75
2022/01/27 13:46:38;;;;;;;26.65;3.78;;;;;;;;;;6164513;23;19998;-75
2022/01/27 13:49:18;;;;;;;24.77;3.03;;;;;;;;;;6164602;23;19997;-74
2022/01/27 13:51:55;;;;;;;24.83;4.13;;;;;;;;;;6128000;23;20096;-74
2022/01/27 13:54:40;;;;;;;29.77;5.30;;;;;;;;;;6163921;23;19998;-77
2022/01/27 13:57:07;;;;;;;27.52;4.60;;;;;;;;;;6166327;23;20001;-75
2022/01/27 13:59:51;;;;;;;20.00;3.80;;;;;;;;;;6167007;23;20004;-81
2022/01/27 14:02:22;;;;;;;29.67;3.85;;;;;;;;;;6168088;23;20001;-79
2022/01/27 14:04:52;;;;;;;28.13;4.35;;;;;;;;;;6166393;23;19994;-76
2022/01/27 14:07:24;;;;;;;27.42;4.20;;;;;;;;;;6165870;23;19998;-76
2022/01/27 14:09:52;;;;;;;25.27;4.38;;;;;;;;;;6165198;23;19993;-75
2022/01/27 14:12:27;;;;;;;30.98;5.15;;;;;;;;;;6165752;23;20013;-75
2022/01/27 14:14:54;;;;;;;29.65;5.88;;;;;;;;;;6128232;23;20060;-76
2022/01/27 14:17:20;;;;;;;32.85;4.43;;;;;;;;;;6128128;23;20005;-77
2022/01/27 14:19:46;;;;;;;21.23;4.35;;;;;;;;;;6164446;23;20076;-75
2022/01/27 14:22:17;;;;;;;35.13;4.65;;;;;;;;;;6164042;23;20008;-76
2022/01/27 14:24:58;;;;;;;19.25;3.67;;;;;;;;;;6164588;23;20376;-75
2022/01/27 14:27:41;;;;;;;31.08;4.28;;;;;;;;;;6138994;23;20002;-75
2022/01/27 14:30:08;;;;;;;29.15;3.38;;;;;;;;;;6154509;23;20036;-75
2022/01/27 14:32:35;;;;;;;32.55;3.33;;;;;;;;;;6164521;23;20080;-76
2022/01/27 14:35:06;;;;;;;29.60;3.58;;;;;;;;;;6163757;23;20014;-75
2022/01/27 14:37:34;;;;;;;27.23;3.67;;;;;;;;;;6163949;23;20438;-75
2022/01/27 14:40:01;;;;;;;33.20;4.28;;;;;;;;;;6164575;23;20311;-75
2022/01/27 14:42:27;;;;;;;24.77;3.90;;;;;;;;;;6163997;23;20001;-75
2022/01/27 14:44:53;;;;;;;18.70;3.28;;;;;;;;;;6163360;23;20435;-75
2022/01/27 14:47:20;;;;;;;26.35;4.07;;;;;;;;;;6128564;23;20006;-75
2022/01/27 14:49:50;;;;;;;18.52;3.60;;;;;;;;;;6163161;23;20100;-75
2022/01/27 14:52:20;;;;;;;23.48;4.88;;;;;;;;;;6164438;23;20017;-76
2022/01/27 14:54:46;;;;;;;27.83;4.28;;;;;;;;;;6128598;23;20080;-76
2022/01/27 14:57:13;;;;;;;28.08;4.38;;;;;;;;;;6164187;23;20001;-77
2022/01/27 14:59:40;;;;;;;26.08;3.60;;;;;;;;;;6128059;23;20029;-76
2022/01/27 15:02:06;;;;;;;22.25;2.90;;;;;;;;;;6163893;23;20673;-76
2022/01/27 15:04:34;;;;;;;26.30;3.55;;;;;;;;;;6154619;23;20006;-77
2022/01/27 15:07:01;;;;;;;23.95;4.20;;;;;;;;;;6164390;23;19997;-76
2022/01/27 15:09:27;;;;;;;29.95;5.00;;;;;;;;;;6163729;23;20165;-76
2022/01/27 15:11:53;;;;;;;25.85;4.35;;;;;;;;;;6127776;23;20014;-76
2022/01/27 15:19:49;;;;;;;24.77;3.47;;;;;;;;;;6163744;23;20020;-76
2022/01/27 15:22:15;;;;;;;21.17;3.55;;;;;;;;;;6163592;23;20006;-76
2022/01/27 15:24:43;;;;;;;23.60;5.68;;;;;;;;;;6126505;23;20002;-77
2022/01/27 15:27:09;;;;;;;29.88;5.00;;;;;;;;;;6125279;23;20009;-76
2022/01/27 15:29:35;;;;;;;29.50;5.43;;;;;;;;;;6160281;23;20001;-77
2022/01/27 15:32:04;;;;;;;27.25;4.43;;;;;;;;;;6155266;23;20471;-78
2022/01/27 15:34:30;;;;;;;23.65;4.80;;;;;;;;;;6162618;23;20072;-76
2022/01/27 15:36:56;;;;;;;38.17;6.07;;;;;;;;;;6161737;23;20064;-75
2022/01/27 15:39:23;;;;;;;34.63;4.55;;;;;;;;;;6161992;23;20072;-76
2022/01/27 15:41:51;;;;;;;33.97;3.92;;;;;;;;;;6162742;23;20025;-76
2022/01/27 15:44:17;;;;;;;29.30;3.15;;;;;;;;;;6126096;23;20010;-76
2022/01/27 15:46:43;;;;;;;27.70;3.22;;;;;;;;;;6127369;23;20002;-76
2022/01/27 15:49:09;;;;;;;32.63;3.42;;;;;;;;;;6162357;23;20366;-76
2022/01/27 15:51:37;;;;;;;27.75;4.03;;;;;;;;;;6127360;23;20010;-77
2022/01/27 15:54:10;;;;;;;34.05;4.00;;;;;;;;;;6162171;23;20315;-78
2022/01/27 15:56:35;;;;;;;;;;;;;;;;;;6161459;23;20002;-77
2022/01/27 15:59:02;;;;;;;28.63;4.70;;;;;;;;;;6162831;23;19907;-79
2022/01/27 16:01:28;;;;;;;32.88;3.58;;;;;;;;;;6163535;23;20033;-76
2022/01/27 16:03:54;;;;;;;29.85;4.60;;;;;;;;;;6161200;23;20008;-76
2022/01/27 16:06:20;;;;;;;34.88;4.97;;;;;;;;;;6161519;23;20312;-76
2022/01/27 16:08:46;;;;;;;27.10;3.13;;;;;;;;;;6162387;23;20002;-73
2022/01/27 16:11:12;;;;;;;28.05;7.93;;;;;;;;;;6162343;23;20378;-77
2022/01/27 16:13:39;;;;;;;27.95;5.90;;;;;;;;;;6163369;23;20450;-76
2022/01/27 16:16:06;;;;;;;27.77;4.18;;;;;;;;;;6162381;23;20092;-79
2022/01/27 16:18:32;;;;;;;21.30;3.35;;;;;;;;;;6162334;23;20008;-79
2022/01/27 16:20:59;;;;;;;31.73;5.25;;;;;;;;;;6163312;23;20334;-79
2022/01/27 16:23:25;;;;;;;25.33;3.63;;;;;;;;;;6162051;23;20410;-76
2022/01/27 16:25:51;;;;;;;25.15;3.53;;;;;;;;;;6163391;23;20002;-77
2022/01/27 16:28:17;;;;;;;30.77;3.97;;;;;;;;;;6161393;23;20052;-84
2022/01/27 16:30:43;;;;;;;32.97;4.43;;;;;;;;;;6163648;23;20004;-75
2022/01/27 16:33:11;;;;;;;27.33;3.60;;;;;;;;;;6164423;23;20438;-76
2022/01/27 16:35:37;;;;;;;28.13;4.47;;;;;;;;;;6162681;23;20005;-76
2022/01/27 16:38:03;;;;;;;28.50;5.28;;;;;;;;;;6163552;23;20001;-75
2022/01/27 16:40:29;;;;;;;30.60;4.50;;;;;;;;;;6161973;23;20319;-77
2022/01/27 16:42:59;;;;;;;32.58;5.32;;;;;;;;;;6161628;23;20005;-75
2022/01/27 16:45:25;;;;;;;30.90;4.55;;;;;;;;;;6162661;23;19998;-73
2022/01/27 16:47:51;;;;;;;32.97;3.97;;;;;;;;;;6161618;23;20008;-75
2022/01/27 16:50:17;;;;;;;25.63;3.67;;;;;;;;;;6160627;23;20025;-76